createdAt,value
2023-04-26T00:01:58.482Z,3.90
2023-04-26T00:07:01.986Z,3.70
2023-04-26T00:12:07.017Z,3.87
2023-04-26T00:17:10.169Z,3.50
2023-04-26T00:22:13.300Z,3.90
2023-04-26T00:27:17.827Z,3.30
2023-04-26T00:32:20.948Z,4.03
2023-04-26T00:37:27.508Z,3.60
2023-04-26T00:42:32.127Z,3.97
2023-04-26T00:47:35.411Z,3.50
2023-04-26T00:52:39.542Z,3.60
2023-04-26T00:57:45.323Z,3.40
2023-04-26T01:02:48.550Z,3.63
2023-04-26T01:07:52.028Z,4.13
2023-04-26T01:12:57.826Z,3.90
2023-04-26T01:18:01.869Z,3.77
2023-04-26T01:23:07.259Z,3.80
2023-04-26T01:28:10.342Z,3.80
2023-04-26T01:33:15.357Z,4.00
2023-04-26T01:38:20.101Z,4.13
2023-04-26T01:43:23.469Z,4.47
2023-04-26T01:48:26.553Z,4.03
2023-04-26T01:53:30.985Z,3.93
2023-04-26T01:58:34.040Z,4.23
2023-04-26T02:03:37.598Z,4.37
2023-04-26T02:08:42.365Z,4.00
2023-04-26T02:13:45.429Z,4.10
2023-04-26T02:18:49.741Z,4.30
2023-04-26T02:23:54.866Z,3.90
2023-04-26T02:28:58.224Z,3.90
2023-04-26T02:34:01.664Z,3.77
2023-04-26T02:39:06.770Z,4.00
2023-04-26T02:44:10.248Z,3.87
2023-04-26T02:49:13.310Z,4.27
2023-04-26T02:54:17.807Z,4.13
2023-04-26T02:59:21.078Z,3.83
2023-04-26T03:04:24.198Z,3.43
2023-04-26T03:09:28.662Z,3.70
2023-04-26T03:14:31.704Z,3.67
2023-04-26T03:19:34.818Z,4.60
2023-04-26T03:24:39.206Z,4.00
2023-04-26T03:29:43.972Z,3.73
2023-04-26T03:34:48.638Z,4.10
2023-04-26T03:39:53.731Z,4.03
2023-04-26T03:44:56.766Z,4.37
2023-04-26T03:50:00.007Z,4.33
2023-04-26T03:55:04.784Z,4.50
2023-04-26T04:00:11.763Z,4.40
2023-04-26T04:05:14.865Z,4.60
2023-04-26T04:10:19.663Z,4.53
2023-04-26T04:15:22.847Z,4.50
2023-04-26T04:20:26.130Z,4.57
2023-04-26T04:25:30.615Z,4.73
2023-04-26T04:30:34.262Z,5.20
2023-04-26T04:35:37.450Z,5.13
2023-04-26T04:40:42.277Z,5.27
2023-04-26T04:45:45.367Z,5.10
2023-04-26T04:50:48.432Z,5.00
2023-04-26T04:55:52.827Z,4.27
2023-04-26T05:00:56.020Z,4.10
2023-04-26T05:05:59.122Z,4.23
2023-04-26T05:11:03.784Z,4.87
2023-04-26T05:16:07.261Z,4.20
2023-04-26T05:21:10.368Z,3.90
2023-04-26T05:26:16.340Z,3.80
2023-04-26T05:31:19.975Z,3.47
2023-04-26T05:36:23.103Z,4.37
2023-04-26T05:41:27.577Z,3.80
2023-04-26T05:46:30.741Z,3.40
2023-04-26T05:51:33.822Z,3.40
2023-04-26T05:56:38.405Z,3.70
2023-04-26T06:01:41.642Z,3.37
2023-04-26T06:06:44.747Z,3.90
2023-04-26T06:11:49.512Z,3.97
2023-04-26T06:16:52.726Z,3.57
2023-04-26T06:21:57.334Z,3.47
2023-04-26T06:27:02.174Z,3.50
2023-04-26T06:32:05.865Z,3.70
2023-04-26T06:37:09.088Z,3.53
2023-04-26T06:42:13.591Z,4.57
2023-04-26T06:47:16.843Z,3.13
2023-04-26T06:52:21.529Z,4.07
2023-04-26T06:57:26.496Z,2.80
2023-04-26T07:02:29.978Z,2.80
2023-04-26T07:07:33.301Z,2.70
2023-04-26T07:12:37.964Z,2.70
2023-04-26T07:17:41.250Z,2.73
2023-04-26T07:22:44.534Z,2.73
2023-04-26T07:27:51.581Z,2.30
2023-04-26T07:32:54.914Z,2.50
2023-04-26T07:37:58.455Z,2.70
2023-04-26T07:43:03.489Z,2.67
2023-04-26T07:48:07.100Z,2.90
2023-04-26T07:53:10.247Z,2.80
2023-04-26T07:58:14.766Z,2.10
2023-04-26T08:03:18.336Z,3.00
2023-04-26T08:08:21.685Z,3.00
2023-04-26T08:13:29.203Z,2.43
2023-04-26T08:18:33.242Z,2.03
2023-04-26T08:23:37.515Z,2.50
2023-04-26T08:28:42.156Z,2.67
2023-04-26T08:33:45.299Z,2.70
2023-04-26T08:38:48.373Z,2.10
2023-04-26T08:43:53.592Z,2.20
2023-04-26T08:49:07.473Z,2.00
2023-04-26T08:54:12.392Z,2.00
2023-04-26T08:59:18.102Z,2.30
2023-04-26T09:04:21.773Z,2.83
2023-04-26T09:09:29.494Z,2.60
2023-04-26T09:14:34.594Z,2.20
2023-04-26T09:19:39.105Z,1.90
2023-04-26T09:24:50.206Z,2.00
2023-04-26T09:30:06.694Z,1.80
2023-04-26T09:35:09.830Z,1.90
2023-04-26T09:40:20.320Z,2.00
2023-04-26T09:45:24.991Z,2.03
2023-04-26T09:50:30.138Z,1.90
2023-04-26T09:55:35.389Z,2.10
2023-04-26T10:00:42.581Z,2.00
2023-04-26T10:05:47.178Z,1.83
2023-04-26T10:10:51.761Z,2.13
2023-04-26T10:15:57.431Z,1.90
2023-04-26T10:21:03.133Z,1.80
2023-04-26T10:26:06.867Z,2.17
2023-04-26T10:31:11.378Z,2.30
2023-04-26T10:36:15.654Z,1.70
2023-04-26T10:41:36.056Z,2.13
2023-04-26T10:46:43.056Z,1.97
2023-04-26T10:52:15.211Z,2.00
2023-04-26T10:57:19.030Z,2.23
2023-04-26T11:02:49.248Z,1.90
2023-04-26T11:08:05.029Z,2.20
2023-04-26T11:13:08.436Z,2.00
2023-04-26T11:18:12.968Z,1.50
2023-04-26T11:23:16.663Z,1.70
2023-04-26T11:28:20.204Z,1.70
2023-04-26T11:33:25.089Z,1.57
2023-04-26T11:38:29.584Z,1.73
2023-04-26T11:43:37.141Z,1.80
2023-04-26T11:48:42.054Z,1.97
2023-04-26T11:53:45.546Z,1.93
2023-04-26T11:58:51.054Z,2.20
2023-04-26T12:03:57.490Z,1.73
2023-04-26T12:09:05.346Z,2.10
2023-04-26T12:14:09.950Z,2.33
2023-04-26T12:19:15.151Z,2.00
2023-04-26T12:24:25.488Z,2.40
2023-04-26T12:29:30.428Z,2.90
2023-04-26T12:34:35.944Z,2.67
2023-04-26T12:39:38.995Z,2.80
2023-04-26T12:44:42.120Z,2.60
2023-04-26T12:49:46.484Z,3.13
2023-04-26T12:54:49.506Z,3.60
2023-04-26T12:59:52.549Z,3.47
2023-04-26T13:04:57.171Z,3.10
2023-04-26T13:10:00.482Z,3.40
2023-04-26T13:15:03.825Z,4.10
2023-04-26T13:20:09.499Z,3.40
2023-04-26T13:25:13.253Z,3.73
2023-04-26T13:30:16.786Z,3.83
2023-04-26T13:35:21.410Z,4.10
2023-04-26T13:40:24.517Z,4.10
2023-04-26T13:45:30.425Z,4.17
2023-04-26T13:50:36.491Z,4.57
2023-04-26T13:55:39.547Z,4.33
2023-04-26T14:00:43.027Z,4.80
2023-04-26T14:05:47.447Z,4.80
2023-04-26T14:10:50.566Z,4.47
2023-04-26T14:15:53.718Z,4.50
2023-04-26T14:20:58.132Z,4.50
2023-04-26T14:26:01.403Z,4.70
2023-04-26T14:31:04.700Z,4.50
2023-04-26T14:36:09.493Z,4.63
2023-04-26T14:41:15.416Z,4.87
2023-04-26T14:46:18.749Z,4.70
2023-04-26T14:51:23.233Z,4.70
2023-04-26T14:56:26.559Z,5.00
2023-04-26T15:01:30.042Z,5.13
2023-04-26T15:06:35.210Z,4.67
2023-04-26T15:11:38.582Z,5.07
2023-04-26T15:16:42.053Z,5.33
2023-04-26T15:21:46.456Z,4.97
2023-04-26T15:26:49.478Z,5.00
2023-04-26T15:31:52.804Z,4.70
2023-04-26T15:37:00.470Z,4.50
2023-04-26T15:42:04.078Z,4.50
2023-04-26T15:47:07.226Z,4.80
2023-04-26T17:34:09.745Z,5.40
2023-04-26T17:39:12.787Z,5.40
2023-04-26T17:44:15.914Z,5.10
2023-04-26T17:49:21.915Z,4.70
2023-04-26T17:54:25.376Z,5.57
2023-04-26T17:59:28.391Z,4.27
2023-04-26T18:04:33.089Z,5.30
2023-04-26T18:09:36.325Z,4.73
2023-04-26T18:14:44.443Z,4.83
2023-04-26T18:19:48.781Z,4.93
2023-04-26T18:24:52.433Z,4.20
2023-04-26T18:29:55.473Z,4.27
2023-04-26T18:35:00.011Z,4.73
2023-04-26T18:40:04.875Z,4.43
2023-04-26T18:45:09.377Z,4.53
2023-04-26T18:50:13.778Z,4.70
2023-04-26T18:55:17.036Z,5.00
2023-04-26T19:00:21.074Z,4.70
2023-04-26T19:05:26.041Z,4.57
2023-04-26T19:10:29.266Z,5.30
2023-04-26T19:15:32.671Z,4.60
2023-04-26T19:20:37.643Z,4.70
2023-04-26T19:25:40.844Z,5.03
2023-04-26T19:30:44.071Z,4.53
2023-04-26T19:35:48.752Z,4.50
2023-04-26T19:40:51.928Z,4.87
2023-04-26T19:45:54.955Z,5.30
2023-04-26T19:50:59.666Z,5.20
2023-04-26T19:56:03.433Z,7.33
2023-04-26T20:01:07.006Z,5.80
2023-04-26T20:06:14.086Z,5.40
2023-04-26T20:11:18.437Z,10.07
2023-04-26T20:16:21.524Z,8.93
2023-04-26T20:21:27.819Z,10.03
2023-04-26T20:26:32.166Z,14.10
2023-04-26T20:31:35.209Z,17.90
2023-04-26T20:36:40.286Z,20.20
2023-04-26T20:41:43.322Z,10.20
2023-04-26T20:46:46.470Z,10.53
2023-04-26T20:51:51.498Z,5.87
2023-04-26T20:56:54.541Z,8.23
2023-04-26T21:01:57.695Z,5.57
2023-04-26T21:07:02.259Z,5.23
2023-04-26T21:12:05.980Z,5.67
2023-04-26T21:17:08.986Z,5.53
2023-04-26T21:22:13.318Z,5.10
2023-04-26T21:27:16.321Z,4.90
2023-04-26T21:32:19.323Z,5.80
2023-04-26T21:37:24.184Z,5.40
2023-04-26T21:42:27.426Z,5.90
2023-04-26T21:47:30.468Z,5.20
2023-04-26T21:52:35.050Z,6.20
2023-04-26T21:57:38.390Z,7.23
2023-04-26T22:02:41.645Z,7.07
2023-04-26T22:07:46.543Z,6.80
2023-04-26T22:12:50.127Z,6.93
2023-04-26T22:17:53.118Z,6.43
2023-04-26T22:22:57.505Z,5.60
2023-04-26T22:28:01.337Z,5.30
2023-04-26T22:33:04.378Z,5.80
2023-04-26T22:38:08.761Z,5.37
2023-04-26T22:43:12.158Z,5.13
2023-04-26T22:48:15.444Z,6.10
2023-04-26T22:53:20.182Z,5.70
2023-04-26T22:58:23.360Z,5.53
2023-04-26T23:03:26.901Z,5.13
2023-04-26T23:08:31.294Z,5.30
2023-04-26T23:13:36.113Z,5.10
2023-04-26T23:18:39.107Z,5.30
2023-04-26T23:23:43.460Z,5.40
2023-04-26T23:28:46.594Z,5.13
2023-04-26T23:33:49.618Z,5.23
2023-04-26T23:38:53.956Z,4.90
2023-04-26T23:43:57.021Z,5.30
2023-04-26T23:49:00.000Z,5.57
2023-04-26T23:54:04.605Z,5.37
2023-04-26T23:59:07.704Z,5.37
